ACA259 CYYZ-CYWG
Flight info
| Callsign | ACA259 |
|---|---|
| Flight time | N/A |
| Altitude | 36000 |
| Route | AVSEP7 MUSIT DCT SSM DCT AGLIN DCT GOVIT NORAK6 |
| Aircraft | A320/M-SDE3FGHIRWY/LB1 |
Departure
| Time | 2026-05-06 13:48 |
|---|---|
| Airport | Toronto Pearson International Airport (CYYZ) |
Arrival
| Time | N/A |
|---|---|
| Airport | Winnipeg / James Armstrong Richardson International Airport (CYWG) |
| Time | Latitude | Longitude | Altitude | Speed | Heading |
|---|---|---|---|---|---|
| 2026-05-06 13:48 | 43.81264 | -79.62860 | 7946 ft | 269 kts | 309° |
| 2026-05-06 13:48 | 43.82335 | -79.64954 | 8760 ft | 266 kts | 292° |
| 2026-05-06 13:48 | 43.82911 | -79.67368 | 9611 ft | 263 kts | 276° |
| 2026-05-06 13:48 | 43.82962 | -79.69880 | 10388 ft | 261 kts | 261° |
| 2026-05-06 13:49 | 43.82593 | -79.72382 | 10853 ft | 275 kts | 256° |
| 2026-05-06 13:49 | 43.82151 | -79.75071 | 11063 ft | 296 kts | 256° |
| 2026-05-06 13:49 | 43.81686 | -79.77892 | 11619 ft | 304 kts | 256° |
| 2026-05-06 13:49 | 43.81215 | -79.80758 | 12347 ft | 306 kts | 256° |
| 2026-05-06 13:50 | 43.80846 | -79.83640 | 13063 ft | 310 kts | 264° |
| 2026-05-06 13:50 | 43.80989 | -79.86639 | 13765 ft | 317 kts | 278° |
| 2026-05-06 13:50 | 43.81736 | -79.89552 | 14385 ft | 327 kts | 292° |
| 2026-05-06 13:50 | 43.83039 | -79.92193 | 15008 ft | 336 kts | 301° |
| 2026-05-06 13:51 | 43.84474 | -79.94759 | 15644 ft | 338 kts | 301° |
| 2026-05-06 13:51 | 43.85915 | -79.97343 | 16242 ft | 340 kts | 301° |
| 2026-05-06 13:51 | 43.87361 | -79.99946 | 16863 ft | 342 kts | 301° |
| 2026-05-06 13:51 | 43.88815 | -80.02573 | 17474 ft | 344 kts | 301° |
| 2026-05-06 13:52 | 43.90272 | -80.05222 | 18080 ft | 347 kts | 301° |
| 2026-05-06 13:52 | 43.91739 | -80.07891 | 18623 ft | 349 kts | 301° |
| 2026-05-06 13:52 | 43.93217 | -80.10573 | 19189 ft | 350 kts | 301° |
| 2026-05-06 13:52 | 43.94699 | -80.13265 | 19730 ft | 352 kts | 300° |
| 2026-05-06 13:53 | 43.96177 | -80.15972 | 20299 ft | 353 kts | 300° |
| 2026-05-06 13:53 | 43.97656 | -80.18699 | 20934 ft | 352 kts | 300° |
| 2026-05-06 13:53 | 43.99127 | -80.21419 | 21508 ft | 353 kts | 299° |
| 2026-05-06 13:53 | 44.00599 | -80.24152 | 22121 ft | 354 kts | 299° |
| 2026-05-06 13:54 | 44.02080 | -80.26908 | 22600 ft | 357 kts | 299° |
| 2026-05-06 13:54 | 44.03563 | -80.29661 | 23097 ft | 359 kts | 299° |
| 2026-05-06 13:54 | 44.05067 | -80.32449 | 23570 ft | 361 kts | 299° |
| 2026-05-06 13:54 | 44.06576 | -80.35251 | 23962 ft | 363 kts | 298° |
| 2026-05-06 13:55 | 44.08093 | -80.38081 | 24342 ft | 365 kts | 298° |
| 2026-05-06 13:55 | 44.09618 | -80.40925 | 24709 ft | 368 kts | 298° |
| 2026-05-06 13:55 | 44.11156 | -80.43786 | 25075 ft | 370 kts | 298° |
| 2026-05-06 13:55 | 44.12704 | -80.46662 | 25429 ft | 372 kts | 298° |
| 2026-05-06 13:56 | 44.14328 | -80.49500 | 25777 ft | 380 kts | 304° |
| 2026-05-06 13:56 | 44.16148 | -80.52199 | 26119 ft | 383 kts | 304° |
| 2026-05-06 13:56 | 44.17977 | -80.54910 | 26476 ft | 386 kts | 304° |
| 2026-05-06 13:56 | 44.19820 | -80.57647 | 26786 ft | 388 kts | 304° |
| 2026-05-06 13:57 | 44.21672 | -80.60404 | 27111 ft | 390 kts | 304° |
| 2026-05-06 13:57 | 44.23532 | -80.63179 | 27469 ft | 393 kts | 305° |
| 2026-05-06 13:57 | 44.25403 | -80.65976 | 27745 ft | 396 kts | 304° |
| 2026-05-06 13:57 | 44.27290 | -80.68793 | 28053 ft | 398 kts | 304° |
| 2026-05-06 13:58 | 44.29189 | -80.71628 | 28362 ft | 400 kts | 304° |
| 2026-05-06 13:58 | 44.31092 | -80.74471 | 28669 ft | 402 kts | 304° |
| 2026-05-06 13:58 | 44.33006 | -80.77335 | 28973 ft | 404 kts | 304° |
| 2026-05-06 13:58 | 44.34905 | -80.80180 | 29257 ft | 406 kts | 304° |
| 2026-05-06 13:59 | 44.36831 | -80.83070 | 29539 ft | 408 kts | 304° |
| 2026-05-06 13:59 | 44.38769 | -80.85982 | 29821 ft | 409 kts | 304° |
| 2026-05-06 13:59 | 44.40712 | -80.88908 | 30074 ft | 411 kts | 304° |
| 2026-05-06 13:59 | 44.42663 | -80.91846 | 30321 ft | 413 kts | 304° |
| 2026-05-06 14:00 | 44.44621 | -80.94797 | 30539 ft | 414 kts | 304° |
| 2026-05-06 14:00 | 44.46585 | -80.97761 | 30757 ft | 416 kts | 304° |
| 2026-05-06 14:00 | 44.48550 | -81.00732 | 31004 ft | 416 kts | 304° |
| 2026-05-06 14:00 | 44.50512 | -81.03696 | 31302 ft | 415 kts | 304° |
| 2026-05-06 14:01 | 44.52473 | -81.06663 | 31593 ft | 414 kts | 304° |
| 2026-05-06 14:01 | 44.54428 | -81.09628 | 31878 ft | 414 kts | 304° |
| 2026-05-06 14:01 | 44.56380 | -81.12592 | 32165 ft | 413 kts | 304° |
| 2026-05-06 14:01 | 44.58332 | -81.15556 | 32453 ft | 413 kts | 304° |
| 2026-05-06 14:02 | 44.60281 | -81.18515 | 32742 ft | 412 kts | 304° |
| 2026-05-06 14:02 | 44.62203 | -81.21435 | 33022 ft | 412 kts | 304° |
| 2026-05-06 14:02 | 44.64143 | -81.24390 | 33306 ft | 412 kts | 304° |
| 2026-05-06 14:02 | 44.66080 | -81.27346 | 33592 ft | 411 kts | 304° |
| 2026-05-06 14:03 | 44.68012 | -81.30297 | 33982 ft | 409 kts | 304° |
| 2026-05-06 14:03 | 44.69934 | -81.33233 | 34269 ft | 407 kts | 304° |
| 2026-05-06 14:03 | 44.71848 | -81.36158 | 34505 ft | 406 kts | 304° |
| 2026-05-06 14:03 | 44.73760 | -81.39088 | 34713 ft | 406 kts | 304° |
| 2026-05-06 14:04 | 44.75668 | -81.42018 | 34909 ft | 406 kts | 304° |
| 2026-05-06 14:04 | 44.77572 | -81.44947 | 35100 ft | 406 kts | 304° |
| 2026-05-06 14:04 | 44.79480 | -81.47878 | 35295 ft | 406 kts | 304° |
| 2026-05-06 14:04 | 44.81387 | -81.50811 | 35481 ft | 406 kts | 304° |
| 2026-05-06 14:05 | 44.83292 | -81.53741 | 35654 ft | 406 kts | 304° |
| 2026-05-06 14:05 | 44.85199 | -81.56678 | 35837 ft | 406 kts | 304° |
| 2026-05-06 14:05 | 44.87100 | -81.59612 | 35947 ft | 405 kts | 304° |
| 2026-05-06 14:05 | 44.88994 | -81.62541 | 36006 ft | 403 kts | 304° |
| 2026-05-06 14:06 | 44.92763 | -81.68369 | 35984 ft | 402 kts | 304° |
| 2026-05-06 14:06 | 44.96519 | -81.74197 | 35991 ft | 401 kts | 304° |
| 2026-05-06 14:07 | 45.00272 | -81.80039 | 35989 ft | 401 kts | 304° |
| 2026-05-06 14:07 | 45.04032 | -81.85886 | 35992 ft | 402 kts | 304° |
| 2026-05-06 14:08 | 45.07786 | -81.91734 | 35996 ft | 401 kts | 304° |
| 2026-05-06 14:08 | 45.11535 | -81.97591 | 36016 ft | 402 kts | 303° |
| 2026-05-06 14:09 | 45.15280 | -82.03461 | 36004 ft | 402 kts | 303° |
| 2026-05-06 14:09 | 45.19029 | -82.09347 | 35992 ft | 402 kts | 303° |
| 2026-05-06 14:10 | 45.22754 | -82.15203 | 35996 ft | 402 kts | 303° |
| 2026-05-06 14:10 | 45.26507 | -82.21107 | 35991 ft | 403 kts | 303° |
| 2026-05-06 14:11 | 45.30251 | -82.27017 | 36022 ft | 402 kts | 303° |
| 2026-05-06 14:11 | 45.33994 | -82.32955 | 36002 ft | 403 kts | 303° |
| 2026-05-06 14:12 | 45.37737 | -82.38898 | 35980 ft | 403 kts | 303° |
| 2026-05-06 14:12 | 45.41422 | -82.44906 | 35976 ft | 401 kts | 300° |
| 2026-05-06 14:13 | 45.44842 | -82.51102 | 35986 ft | 399 kts | 298° |
| 2026-05-06 14:13 | 45.48217 | -82.57394 | 35985 ft | 400 kts | 299° |
| 2026-05-06 14:14 | 45.51629 | -82.63661 | 35996 ft | 400 kts | 299° |
| 2026-05-06 14:14 | 45.55070 | -82.69905 | 36011 ft | 401 kts | 299° |
| 2026-05-06 14:15 | 45.58509 | -82.76168 | 36001 ft | 401 kts | 299° |
| 2026-05-06 14:15 | 45.61950 | -82.82439 | 35996 ft | 401 kts | 299° |
| 2026-05-06 14:16 | 45.65358 | -82.88686 | 35990 ft | 401 kts | 299° |
| 2026-05-06 14:16 | 45.68777 | -82.94983 | 36025 ft | 401 kts | 299° |
| 2026-05-06 14:17 | 45.72190 | -83.01285 | 36011 ft | 400 kts | 299° |
| 2026-05-06 14:17 | 45.75051 | -83.06562 | 36006 ft | 400 kts | 299° |
| 2026-05-06 14:18 | 45.78466 | -83.12868 | 36016 ft | 400 kts | 299° |
| 2026-05-06 14:18 | 45.81855 | -83.19148 | 36005 ft | 401 kts | 299° |
| 2026-05-06 14:19 | 45.85265 | -83.25466 | 35996 ft | 401 kts | 299° |
| 2026-05-06 14:19 | 45.88669 | -83.31797 | 36008 ft | 401 kts | 299° |
| 2026-05-06 14:20 | 45.92065 | -83.38144 | 36000 ft | 401 kts | 299° |
| 2026-05-06 14:20 | 45.95461 | -83.44501 | 35978 ft | 401 kts | 299° |
| 2026-05-06 14:21 | 45.98861 | -83.50865 | 35991 ft | 401 kts | 300° |
| 2026-05-06 14:21 | 46.02255 | -83.57241 | 35970 ft | 402 kts | 300° |
| 2026-05-06 14:22 | 46.05649 | -83.63640 | 35963 ft | 402 kts | 300° |
| 2026-05-06 14:22 | 46.09050 | -83.70055 | 35967 ft | 403 kts | 300° |
| 2026-05-06 14:23 | 46.12450 | -83.76475 | 35958 ft | 403 kts | 300° |
| 2026-05-06 14:23 | 46.15845 | -83.82906 | 35958 ft | 403 kts | 300° |
| 2026-05-06 14:24 | 46.19240 | -83.89350 | 35957 ft | 403 kts | 300° |
| 2026-05-06 14:24 | 46.22630 | -83.95807 | 35976 ft | 404 kts | 300° |
| 2026-05-06 14:25 | 46.25993 | -84.02249 | 35978 ft | 405 kts | 300° |
| 2026-05-06 14:25 | 46.29386 | -84.08746 | 35957 ft | 405 kts | 300° |
| 2026-05-06 14:26 | 46.32781 | -84.15257 | 35951 ft | 406 kts | 300° |
| 2026-05-06 14:26 | 46.36184 | -84.21792 | 35943 ft | 406 kts | 300° |
| 2026-05-06 14:27 | 46.39578 | -84.28329 | 35943 ft | 406 kts | 300° |
| 2026-05-06 14:27 | 46.42657 | -84.35099 | 35942 ft | 400 kts | 294° |
| 2026-05-06 14:28 | 46.45420 | -84.42116 | 35971 ft | 401 kts | 294° |
| 2026-05-06 14:28 | 46.48181 | -84.49171 | 35954 ft | 402 kts | 294° |
| 2026-05-06 14:29 | 46.50949 | -84.56244 | 35947 ft | 403 kts | 294° |
| 2026-05-06 14:29 | 46.53716 | -84.63327 | 35946 ft | 403 kts | 294° |
| 2026-05-06 14:30 | 46.56484 | -84.70421 | 35950 ft | 403 kts | 294° |
| 2026-05-06 14:30 | 46.59232 | -84.77481 | 35963 ft | 404 kts | 294° |
| 2026-05-06 14:31 | 46.61991 | -84.84602 | 35965 ft | 404 kts | 294° |
| 2026-05-06 14:31 | 46.64752 | -84.91734 | 35966 ft | 405 kts | 294° |
| 2026-05-06 14:32 | 46.67516 | -84.98882 | 35971 ft | 405 kts | 294° |
| 2026-05-06 14:32 | 46.70274 | -85.06041 | 35971 ft | 405 kts | 294° |
| 2026-05-06 14:33 | 46.73025 | -85.13208 | 35988 ft | 405 kts | 294° |
| 2026-05-06 14:33 | 46.75774 | -85.20383 | 35981 ft | 405 kts | 294° |
| 2026-05-06 14:34 | 46.78500 | -85.27531 | 35975 ft | 406 kts | 294° |
| 2026-05-06 14:34 | 46.81238 | -85.34735 | 35973 ft | 406 kts | 294° |
| 2026-05-06 14:35 | 46.83976 | -85.41957 | 35976 ft | 406 kts | 294° |
| 2026-05-06 14:35 | 46.86712 | -85.49176 | 35978 ft | 406 kts | 294° |
| 2026-05-06 14:36 | 46.89448 | -85.56399 | 36003 ft | 406 kts | 294° |
| 2026-05-06 14:36 | 46.92177 | -85.63646 | 35982 ft | 407 kts | 294° |
| 2026-05-06 14:37 | 46.94911 | -85.70910 | 35983 ft | 408 kts | 294° |
| 2026-05-06 14:37 | 46.97640 | -85.78204 | 35974 ft | 408 kts | 294° |
| 2026-05-06 14:38 | 47.00371 | -85.85497 | 35977 ft | 409 kts | 294° |
| 2026-05-06 14:38 | 47.03102 | -85.92806 | 35979 ft | 409 kts | 294° |
| 2026-05-06 14:39 | 47.05824 | -86.00141 | 35974 ft | 409 kts | 294° |
| 2026-05-06 14:39 | 47.08542 | -86.07486 | 35976 ft | 410 kts | 294° |
| 2026-05-06 14:40 | 47.11240 | -86.14794 | 35973 ft | 410 kts | 294° |
| 2026-05-06 14:40 | 47.13956 | -86.22170 | 35984 ft | 411 kts | 294° |
| 2026-05-06 14:41 | 47.16677 | -86.29554 | 35987 ft | 411 kts | 294° |
| 2026-05-06 14:41 | 47.19397 | -86.36970 | 35986 ft | 412 kts | 294° |
| 2026-05-06 14:42 | 47.22116 | -86.44405 | 35978 ft | 413 kts | 294° |
| 2026-05-06 14:42 | 47.24826 | -86.51855 | 35978 ft | 413 kts | 294° |
| 2026-05-06 14:43 | 47.27542 | -86.59315 | 35979 ft | 413 kts | 294° |
| 2026-05-06 14:43 | 47.30252 | -86.66779 | 35980 ft | 413 kts | 294° |
| 2026-05-06 14:44 | 47.32953 | -86.74255 | 35988 ft | 413 kts | 294° |
| 2026-05-06 14:45 | 47.36997 | -86.85496 | 35996 ft | 414 kts | 294° |
| 2026-05-06 14:45 | 47.39691 | -86.93004 | 35989 ft | 415 kts | 294° |
| 2026-05-06 14:46 | 47.42390 | -87.00539 | 35987 ft | 415 kts | 294° |
| 2026-05-06 14:46 | 47.45082 | -87.08082 | 35982 ft | 415 kts | 294° |
| 2026-05-06 14:47 | 47.47752 | -87.15595 | 35984 ft | 416 kts | 294° |
| 2026-05-06 14:47 | 47.50443 | -87.23171 | 35979 ft | 416 kts | 294° |
| 2026-05-06 14:48 | 47.53131 | -87.30756 | 35976 ft | 416 kts | 294° |
| 2026-05-06 14:48 | 47.55816 | -87.38357 | 35974 ft | 417 kts | 294° |
| 2026-05-06 14:49 | 47.58489 | -87.45975 | 35983 ft | 417 kts | 294° |
| 2026-05-06 14:49 | 47.61164 | -87.53616 | 35967 ft | 418 kts | 295° |
| 2026-05-06 14:50 | 47.63851 | -87.61279 | 35968 ft | 419 kts | 294° |
| 2026-05-06 14:50 | 47.66533 | -87.68965 | 35967 ft | 420 kts | 294° |
| 2026-05-06 14:51 | 47.69210 | -87.76674 | 35965 ft | 420 kts | 294° |
| 2026-05-06 14:51 | 47.71887 | -87.84385 | 35969 ft | 420 kts | 294° |
| 2026-05-06 14:52 | 47.74561 | -87.92111 | 35976 ft | 421 kts | 294° |
| 2026-05-06 14:52 | 47.77222 | -87.99852 | 35975 ft | 421 kts | 294° |
| 2026-05-06 14:53 | 47.79884 | -88.07607 | 35988 ft | 421 kts | 295° |
| 2026-05-06 14:53 | 47.82555 | -88.15379 | 35980 ft | 422 kts | 295° |
| 2026-05-06 14:54 | 47.85217 | -88.23170 | 35977 ft | 422 kts | 294° |
| 2026-05-06 14:54 | 47.87863 | -88.30976 | 35978 ft | 423 kts | 294° |
| 2026-05-06 14:55 | 47.90515 | -88.38799 | 35975 ft | 423 kts | 295° |
| 2026-05-06 14:55 | 47.93174 | -88.46622 | 35977 ft | 423 kts | 295° |
| 2026-05-06 14:56 | 47.95821 | -88.54467 | 35975 ft | 423 kts | 294° |
| 2026-05-06 14:56 | 47.98460 | -88.62328 | 35976 ft | 423 kts | 294° |
| 2026-05-06 14:57 | 48.01100 | -88.70193 | 35988 ft | 424 kts | 295° |
| 2026-05-06 14:57 | 48.03738 | -88.78066 | 35968 ft | 424 kts | 295° |
| 2026-05-06 14:58 | 48.06367 | -88.85969 | 35967 ft | 424 kts | 294° |
| 2026-05-06 14:58 | 48.08547 | -88.92541 | 35969 ft | 425 kts | 294° |
| 2026-05-06 14:59 | 48.11174 | -89.00462 | 35967 ft | 425 kts | 294° |
| 2026-05-06 14:59 | 48.13800 | -89.08382 | 35968 ft | 425 kts | 294° |
| 2026-05-06 15:00 | 48.16411 | -89.16325 | 35967 ft | 425 kts | 294° |
| 2026-05-06 15:00 | 48.19019 | -89.24269 | 35965 ft | 425 kts | 294° |
| 2026-05-06 15:01 | 48.21627 | -89.32223 | 35965 ft | 425 kts | 294° |
| 2026-05-06 15:01 | 48.24224 | -89.40191 | 35967 ft | 426 kts | 294° |
| 2026-05-06 15:02 | 48.26476 | -89.48376 | 35961 ft | 425 kts | 288° |
| 2026-05-06 15:02 | 48.28440 | -89.56747 | 35966 ft | 425 kts | 288° |
| 2026-05-06 15:03 | 48.30401 | -89.65116 | 35967 ft | 425 kts | 288° |
| 2026-05-06 15:03 | 48.32355 | -89.73496 | 35979 ft | 425 kts | 288° |
| 2026-05-06 15:04 | 48.34305 | -89.81896 | 35982 ft | 425 kts | 288° |
| 2026-05-06 15:04 | 48.36239 | -89.90293 | 35987 ft | 425 kts | 288° |
| 2026-05-06 15:05 | 48.38178 | -89.98695 | 35990 ft | 425 kts | 288° |
| 2026-05-06 15:05 | 48.40110 | -90.07108 | 35985 ft | 425 kts | 288° |
| 2026-05-06 15:06 | 48.42036 | -90.15523 | 35989 ft | 425 kts | 288° |
| 2026-05-06 15:06 | 48.43952 | -90.23946 | 36007 ft | 425 kts | 288° |
| 2026-05-06 15:07 | 48.45868 | -90.32384 | 35997 ft | 426 kts | 288° |
| 2026-05-06 15:07 | 48.47780 | -90.40833 | 35992 ft | 426 kts | 288° |
| 2026-05-06 15:08 | 48.49680 | -90.49299 | 35987 ft | 426 kts | 288° |
| 2026-05-06 15:08 | 48.51574 | -90.57783 | 35992 ft | 427 kts | 288° |
| 2026-05-06 15:09 | 48.53460 | -90.66268 | 35997 ft | 426 kts | 288° |
| 2026-05-06 15:09 | 48.55349 | -90.74754 | 36000 ft | 426 kts | 288° |
| 2026-05-06 15:10 | 48.57231 | -90.83235 | 35997 ft | 426 kts | 288° |
| 2026-05-06 15:10 | 48.59101 | -90.91723 | 36002 ft | 426 kts | 288° |
| 2026-05-06 15:11 | 48.60967 | -91.00222 | 35996 ft | 426 kts | 288° |
| 2026-05-06 15:11 | 48.62831 | -91.08733 | 36001 ft | 426 kts | 288° |
| 2026-05-06 15:12 | 48.64671 | -91.17198 | 36019 ft | 427 kts | 287° |
| 2026-05-06 15:12 | 48.66514 | -91.25738 | 36012 ft | 427 kts | 287° |
| 2026-05-06 15:13 | 48.68360 | -91.34296 | 36003 ft | 428 kts | 288° |
| 2026-05-06 15:13 | 48.70210 | -91.42852 | 36010 ft | 428 kts | 288° |
| 2026-05-06 15:14 | 48.72050 | -91.51423 | 36012 ft | 428 kts | 288° |
| 2026-05-06 15:14 | 48.73873 | -91.60006 | 36016 ft | 428 kts | 287° |
| 2026-05-06 15:15 | 48.75690 | -91.68607 | 36018 ft | 428 kts | 287° |
| 2026-05-06 15:15 | 48.77506 | -91.77206 | 36020 ft | 428 kts | 287° |
| 2026-05-06 15:16 | 48.79320 | -91.85803 | 36024 ft | 428 kts | 288° |
| 2026-05-06 15:16 | 48.81136 | -91.94405 | 36031 ft | 428 kts | 287° |
| 2026-05-06 15:17 | 48.82932 | -92.03028 | 36031 ft | 428 kts | 287° |
| 2026-05-06 15:17 | 48.84717 | -92.11663 | 36036 ft | 428 kts | 287° |
| 2026-05-06 15:18 | 48.86504 | -92.20287 | 36039 ft | 428 kts | 287° |
| 2026-05-06 15:18 | 48.88277 | -92.28876 | 36036 ft | 428 kts | 287° |
| 2026-05-06 15:19 | 48.90048 | -92.37507 | 36044 ft | 428 kts | 287° |
| 2026-05-06 15:19 | 48.91811 | -92.46149 | 36042 ft | 428 kts | 287° |
| 2026-05-06 15:20 | 48.93570 | -92.54795 | 36040 ft | 428 kts | 287° |
| 2026-05-06 15:20 | 48.95322 | -92.63438 | 36041 ft | 428 kts | 287° |
| 2026-05-06 15:21 | 48.97058 | -92.72089 | 36044 ft | 427 kts | 287° |
| 2026-05-06 15:21 | 48.98792 | -92.80746 | 36046 ft | 427 kts | 287° |
| 2026-05-06 15:22 | 49.00524 | -92.89408 | 36046 ft | 427 kts | 287° |
| 2026-05-06 15:22 | 49.02251 | -92.98068 | 36049 ft | 427 kts | 287° |
| 2026-05-06 15:23 | 49.03971 | -93.06735 | 36057 ft | 427 kts | 287° |
| 2026-05-06 15:23 | 49.05681 | -93.15413 | 36048 ft | 427 kts | 287° |
| 2026-05-06 15:24 | 49.07381 | -93.24100 | 36062 ft | 428 kts | 287° |
| 2026-05-06 15:24 | 49.09079 | -93.32793 | 36063 ft | 428 kts | 287° |
| 2026-05-06 15:25 | 49.10777 | -93.41490 | 36064 ft | 428 kts | 287° |
| 2026-05-06 15:25 | 49.12461 | -93.50202 | 36063 ft | 428 kts | 287° |
| 2026-05-06 15:26 | 49.14137 | -93.58915 | 36060 ft | 428 kts | 287° |
| 2026-05-06 15:26 | 49.15816 | -93.67635 | 36064 ft | 428 kts | 287° |
| 2026-05-06 15:27 | 49.17485 | -93.76374 | 36078 ft | 428 kts | 287° |
| 2026-05-06 15:27 | 49.19145 | -93.85106 | 36078 ft | 428 kts | 287° |
| 2026-05-06 15:28 | 49.20801 | -93.93851 | 36084 ft | 428 kts | 287° |
| 2026-05-06 15:28 | 49.22448 | -94.02604 | 36084 ft | 428 kts | 287° |
| 2026-05-06 15:29 | 49.24087 | -94.11352 | 36094 ft | 428 kts | 287° |
| 2026-05-06 15:29 | 49.25723 | -94.20115 | 36091 ft | 428 kts | 287° |
| 2026-05-06 15:30 | 49.27350 | -94.28885 | 36090 ft | 428 kts | 287° |
| 2026-05-06 15:30 | 49.28972 | -94.37666 | 35779 ft | 428 kts | 287° |
| 2026-05-06 15:30 | 49.29778 | -94.42031 | 35449 ft | 424 kts | 287° |
| 2026-05-06 15:31 | 49.30582 | -94.46361 | 34956 ft | 420 kts | 288° |
| 2026-05-06 15:31 | 49.31464 | -94.50608 | 34473 ft | 417 kts | 288° |
| 2026-05-06 15:31 | 49.32270 | -94.54869 | 33990 ft | 414 kts | 287° |
| 2026-05-06 15:32 | 49.33741 | -94.63367 | 32858 ft | 409 kts | 286° |
| 2026-05-06 15:32 | 49.34456 | -94.67573 | 32307 ft | 406 kts | 287° |
| 2026-05-06 15:32 | 49.35183 | -94.71747 | 31771 ft | 404 kts | 287° |
| 2026-05-06 15:32 | 49.35920 | -94.75890 | 31240 ft | 401 kts | 288° |
| 2026-05-06 15:33 | 49.36663 | -94.80003 | 30730 ft | 399 kts | 288° |
| 2026-05-06 15:33 | 49.37407 | -94.84087 | 30220 ft | 396 kts | 288° |
| 2026-05-06 15:33 | 49.38147 | -94.88141 | 29620 ft | 394 kts | 288° |
| 2026-05-06 15:33 | 49.38879 | -94.92181 | 28991 ft | 391 kts | 288° |
| 2026-05-06 15:34 | 49.39592 | -94.96141 | 28407 ft | 389 kts | 288° |
| 2026-05-06 15:34 | 49.40305 | -95.00133 | 27828 ft | 387 kts | 288° |
| 2026-05-06 15:34 | 49.41008 | -95.04103 | 27261 ft | 384 kts | 288° |
| 2026-05-06 15:34 | 49.41707 | -95.08052 | 26704 ft | 382 kts | 288° |
| 2026-05-06 15:35 | 49.42402 | -95.11974 | 26155 ft | 380 kts | 288° |
| 2026-05-06 15:35 | 49.43090 | -95.15878 | 25618 ft | 378 kts | 288° |
| 2026-05-06 15:35 | 49.43775 | -95.19765 | 25099 ft | 376 kts | 288° |
| 2026-05-06 15:35 | 49.44455 | -95.23634 | 24579 ft | 374 kts | 287° |
| 2026-05-06 15:36 | 49.45130 | -95.27482 | 24074 ft | 372 kts | 287° |
| 2026-05-06 15:36 | 49.45803 | -95.31317 | 23553 ft | 371 kts | 287° |
| 2026-05-06 15:36 | 49.46472 | -95.35143 | 22954 ft | 369 kts | 287° |
| 2026-05-06 15:36 | 49.47136 | -95.38947 | 22349 ft | 368 kts | 288° |
| 2026-05-06 15:37 | 49.47798 | -95.42747 | 21776 ft | 367 kts | 288° |
| 2026-05-06 15:37 | 49.48457 | -95.46536 | 21210 ft | 366 kts | 288° |
| 2026-05-06 15:37 | 49.49112 | -95.50316 | 20659 ft | 365 kts | 288° |
| 2026-05-06 15:37 | 49.49762 | -95.54087 | 20113 ft | 364 kts | 287° |
| 2026-05-06 15:38 | 49.50193 | -95.56578 | 19763 ft | 363 kts | 288° |
| 2026-05-06 15:38 | 49.50841 | -95.60326 | 19244 ft | 362 kts | 287° |
| 2026-05-06 15:38 | 49.51485 | -95.64063 | 18721 ft | 361 kts | 287° |
| 2026-05-06 15:38 | 49.52124 | -95.67786 | 18188 ft | 359 kts | 287° |
| 2026-05-06 15:39 | 49.52759 | -95.71497 | 17598 ft | 358 kts | 287° |
| 2026-05-06 15:39 | 49.53389 | -95.75198 | 17038 ft | 357 kts | 287° |
| 2026-05-06 15:39 | 49.54015 | -95.78891 | 16464 ft | 356 kts | 287° |
| 2026-05-06 15:39 | 49.54730 | -95.82519 | 15907 ft | 352 kts | 294° |
| 2026-05-06 15:40 | 49.55692 | -95.85972 | 15353 ft | 351 kts | 295° |
| 2026-05-06 15:40 | 49.56652 | -95.89417 | 14827 ft | 349 kts | 295° |
| 2026-05-06 15:40 | 49.57601 | -95.92848 | 14295 ft | 347 kts | 295° |
| 2026-05-06 15:40 | 49.58543 | -95.96271 | 13775 ft | 346 kts | 295° |
| 2026-05-06 15:41 | 49.59478 | -95.99673 | 13187 ft | 344 kts | 295° |
| 2026-05-06 15:41 | 49.60408 | -96.03053 | 12610 ft | 341 kts | 294° |
| 2026-05-06 15:41 | 49.61331 | -96.06412 | 12043 ft | 339 kts | 295° |
| 2026-05-06 15:41 | 49.62247 | -96.09744 | 11496 ft | 336 kts | 295° |
| 2026-05-06 15:42 | 49.63158 | -96.13050 | 10949 ft | 333 kts | 295° |
| 2026-05-06 15:42 | 49.64054 | -96.16319 | 10428 ft | 330 kts | 294° |
| 2026-05-06 15:42 | 49.64939 | -96.19568 | 9882 ft | 327 kts | 294° |
| 2026-05-06 15:42 | 49.65811 | -96.22788 | 9311 ft | 323 kts | 294° |
| 2026-05-06 15:43 | 49.66672 | -96.25966 | 8735 ft | 320 kts | 294° |
| 2026-05-06 15:43 | 49.67516 | -96.29070 | 8187 ft | 316 kts | 294° |
| 2026-05-06 15:43 | 49.68364 | -96.32181 | 7622 ft | 312 kts | 294° |
| 2026-05-06 15:43 | 49.69199 | -96.35249 | 7201 ft | 305 kts | 294° |
| 2026-05-06 15:44 | 49.69998 | -96.38195 | 7066 ft | 289 kts | 294° |
| 2026-05-06 15:44 | 49.70756 | -96.40990 | 6938 ft | 275 kts | 294° |
| 2026-05-06 15:44 | 49.71476 | -96.43656 | 6805 ft | 262 kts | 294° |
| 2026-05-06 15:44 | 49.72162 | -96.46197 | 6681 ft | 252 kts | 294° |
| 2026-05-06 15:45 | 49.72830 | -96.48671 | 6558 ft | 248 kts | 294° |
| 2026-05-06 15:45 | 49.73471 | -96.51148 | 6426 ft | 248 kts | 289° |
| 2026-05-06 15:45 | 49.73822 | -96.53756 | 6289 ft | 249 kts | 278° |
| 2026-05-06 15:45 | 49.73855 | -96.56444 | 6152 ft | 250 kts | 272° |
| 2026-05-06 15:46 | 49.73849 | -96.59131 | 6017 ft | 250 kts | 273° |
| 2026-05-06 15:46 | 49.73847 | -96.61806 | 5969 ft | 248 kts | 273° |
| 2026-05-06 15:46 | 49.73845 | -96.64482 | 6020 ft | 250 kts | 273° |
| 2026-05-06 15:46 | 49.73841 | -96.67167 | 6027 ft | 249 kts | 273° |
| 2026-05-06 15:47 | 49.73837 | -96.69846 | 6023 ft | 249 kts | 273° |
| 2026-05-06 15:47 | 49.73829 | -96.72528 | 6024 ft | 249 kts | 272° |
| 2026-05-06 15:47 | 49.73820 | -96.75207 | 6024 ft | 249 kts | 272° |